Terminal Aerodrome Forecast
Issued by NWS

Home | Current Version | Previous Version | Text Only | Print | Product List | Glossary On
Versions: 1 2 3 4 5 6 7 8 9 10 11 12 13
000
FTUS45 KBYZ 192332
TAFLVM
TAF
KLVM 192332Z 2000/2024 24015G25KT P6SM -SHRASN BKN040 OVC080
     FM200200 25015KT 3SM -RASN BKN020 OVC040
     FM201100 26010KT P6SM VCSH SCT020 BKN060=

USA.gov is the U.S. government's official web portal to all federal, state and local government web resources and services.